61TX weather

Traylor Tick Farm Airport
Bellville, Texas, United States

Public forecast

Using degrees Fahrenheit for public forecast. Weather courtesy of forecast.io.

METAR (pilot weather report)

Closest report is Brenham Municipal Airport, 15.2 nm (28.2 km) NNW. Retrieved 2019/07/18 02:35 UTC (0 seconds ago):

K11R 180235Z AUTO 17008KT 10SM CLR 30/23 A2999 RMK AO2 T03020233

TAF (pilot weather forecast)

Forecast is more than 12 hours old.

Closest forecast is Easterwood Field, 37.1 nm (68.7 km) N. Retrieved 2019/07/17 00:24 UTC (1 day ago):

TAF KCLL 172322Z 1800/1824 16011KT P6SM FEW060 SCT250 FM180900 16005KT P6SM BKN012 FM181500 18010KT P6SM SCT025 FM181700 18012G22KT P6SM SCT040